createdAt,value
2022-08-28T00:00:18.277Z,998.65
2022-08-28T00:05:18.205Z,998.74
2022-08-28T00:10:18.144Z,998.73
2022-08-28T00:15:18.080Z,998.76
2022-08-28T00:20:18.022Z,998.78
2022-08-28T00:25:17.962Z,998.81
2022-08-28T00:30:17.866Z,998.79
2022-08-28T00:35:17.808Z,998.87
2022-08-28T00:40:17.836Z,998.89
2022-08-28T00:45:17.685Z,998.85
2022-08-28T00:50:17.612Z,998.85
2022-08-28T00:55:17.543Z,998.86
2022-08-28T01:00:17.477Z,998.73
2022-08-28T01:05:17.413Z,998.64
2022-08-28T01:10:17.344Z,998.61
2022-08-28T01:15:17.279Z,998.56
2022-08-28T01:20:17.203Z,998.53
2022-08-28T01:25:17.143Z,998.58
2022-08-28T01:30:17.078Z,998.65
2022-08-28T01:35:17.016Z,998.72
2022-08-28T01:40:16.972Z,998.74
2022-08-28T01:45:16.885Z,998.76
2022-08-28T01:50:16.808Z,998.73
2022-08-28T01:55:16.738Z,998.83
2022-08-28T02:00:16.663Z,998.91
2022-08-28T02:05:16.607Z,998.93
2022-08-28T02:10:16.532Z,999.01
2022-08-28T02:15:16.472Z,999.06
2022-08-28T02:20:16.394Z,999.16
2022-08-28T02:25:16.349Z,999.14
2022-08-28T02:30:16.263Z,999.15
2022-08-28T02:35:16.209Z,999.14
2022-08-28T02:40:16.214Z,999.11
2022-08-28T02:45:16.079Z,999.06
2022-08-28T02:50:16.013Z,999.13
2022-08-28T02:55:15.953Z,999.12
2022-08-28T03:00:15.874Z,999.15
2022-08-28T03:05:15.816Z,999.18
2022-08-28T03:10:15.746Z,999.16
2022-08-28T03:15:15.692Z,999.18
2022-08-28T03:20:15.635Z,999.17
2022-08-28T03:25:15.569Z,999.22
2022-08-28T03:30:15.506Z,999.23
2022-08-28T03:35:15.446Z,999.28
2022-08-28T03:40:15.457Z,999.31
2022-08-28T03:45:15.310Z,999.25
2022-08-28T03:50:15.232Z,999.29
2022-08-28T03:55:15.183Z,999.31
2022-08-28T04:00:15.133Z,999.32
2022-08-28T04:05:15.047Z,999.43
2022-08-28T04:10:14.988Z,999.55
2022-08-28T04:15:14.930Z,999.54
2022-08-28T04:20:14.856Z,999.55
2022-08-28T04:25:14.792Z,999.45
2022-08-28T04:30:14.744Z,999.47
2022-08-28T04:35:14.665Z,999.50
2022-08-28T04:40:14.658Z,999.55
2022-08-28T04:45:14.537Z,999.56
2022-08-28T04:50:14.472Z,999.57
2022-08-28T04:55:14.416Z,999.51
2022-08-28T05:00:14.343Z,999.53
2022-08-28T05:05:14.271Z,999.59
2022-08-28T05:10:14.218Z,999.61
2022-08-28T05:15:14.148Z,999.62
2022-08-28T05:20:14.101Z,999.68
2022-08-28T05:25:14.029Z,999.69
2022-08-28T05:30:13.973Z,999.72
2022-08-28T05:35:13.896Z,999.71
2022-08-28T05:40:13.920Z,999.79
2022-08-28T05:45:13.776Z,999.81
2022-08-28T05:50:13.717Z,999.84
2022-08-28T05:55:13.640Z,999.86
2022-08-28T06:00:13.604Z,999.87
2022-08-28T06:05:13.513Z,999.89
2022-08-28T06:10:13.459Z,999.90
2022-08-28T06:15:13.380Z,999.95
2022-08-28T06:20:13.334Z,999.95
2022-08-28T06:25:13.255Z,1000.00
2022-08-28T06:30:13.200Z,1000.09
2022-08-28T06:35:13.127Z,1000.07
2022-08-28T06:40:13.133Z,1000.16
2022-08-28T06:45:12.999Z,1000.02
2022-08-28T06:50:12.954Z,1000.07
2022-08-28T06:55:12.867Z,1000.12
2022-08-28T07:00:12.811Z,1000.21
2022-08-28T07:05:12.804Z,1000.21
2022-08-28T07:10:12.678Z,1000.26
2022-08-28T07:15:12.611Z,1000.30
2022-08-28T07:20:12.544Z,1000.34
2022-08-28T07:25:12.474Z,1000.35
2022-08-28T07:30:12.408Z,1000.32
2022-08-28T07:35:12.340Z,1000.27
2022-08-28T07:40:12.313Z,1000.25
2022-08-28T07:45:12.204Z,1000.29
2022-08-28T07:50:12.155Z,1000.26
2022-08-28T07:55:12.071Z,1000.33
2022-08-28T08:00:12.016Z,1000.36
2022-08-28T08:05:11.953Z,1000.32
2022-08-28T08:10:11.889Z,1000.33
2022-08-28T08:15:11.821Z,1000.40
2022-08-28T08:20:11.768Z,1000.41
2022-08-28T08:25:11.695Z,1000.42
2022-08-28T08:30:11.632Z,1000.41
2022-08-28T08:35:11.570Z,1000.41
2022-08-28T08:40:11.572Z,1000.39
2022-08-28T08:45:11.432Z,1000.41
2022-08-28T08:50:11.382Z,1000.37
2022-08-28T08:55:11.326Z,1000.38
2022-08-28T09:00:15.803Z,1000.43
2022-08-28T09:05:11.204Z,1000.41
2022-08-28T09:10:11.144Z,1000.43
2022-08-28T09:15:11.056Z,1000.40
2022-08-28T09:20:11.009Z,1000.37
2022-08-28T09:25:10.928Z,1000.47
2022-08-28T09:30:10.868Z,1000.50
2022-08-28T09:35:10.799Z,1000.56
2022-08-28T09:40:10.798Z,1000.44
2022-08-28T09:45:10.687Z,1000.49
2022-08-28T09:50:10.616Z,1000.52
2022-08-28T09:55:10.543Z,1000.51
2022-08-28T10:00:10.489Z,1000.48
2022-08-28T10:05:10.416Z,1000.44
2022-08-28T10:10:10.365Z,1000.42
2022-08-28T10:15:10.291Z,1000.47
2022-08-28T10:20:10.236Z,1000.44
2022-08-28T10:25:10.164Z,1000.53
2022-08-28T10:30:13.202Z,1000.54
2022-08-28T10:35:10.033Z,1000.55
2022-08-28T10:40:10.025Z,1000.63
2022-08-28T10:45:09.915Z,1000.62
2022-08-28T10:50:09.898Z,1000.56
2022-08-28T10:55:09.785Z,1000.50
2022-08-28T11:00:09.730Z,1000.48
2022-08-28T11:05:09.652Z,1000.50
2022-08-28T11:10:09.612Z,1000.52
2022-08-28T11:15:09.527Z,1000.55
2022-08-28T11:20:09.474Z,1000.54
2022-08-28T11:25:09.970Z,1000.52
2022-08-28T11:30:09.339Z,1000.48
2022-08-28T11:35:09.268Z,1000.56
2022-08-28T11:40:09.238Z,1000.54
2022-08-28T11:45:09.143Z,1000.54
2022-08-28T11:50:09.094Z,1000.51
2022-08-28T11:55:09.017Z,1000.45
2022-08-28T12:00:08.965Z,1000.43
2022-08-28T12:05:08.885Z,1000.42
2022-08-28T12:10:08.826Z,1000.38
2022-08-28T12:15:08.750Z,1000.36
2022-08-28T12:20:08.699Z,1000.26
2022-08-28T12:25:08.611Z,1000.25
2022-08-28T12:30:08.556Z,1000.23
2022-08-28T12:35:08.494Z,1000.25
2022-08-28T12:40:08.550Z,1000.31
2022-08-28T12:45:08.362Z,1000.25
2022-08-28T12:50:08.318Z,1000.26
2022-08-28T12:55:08.221Z,1000.32
2022-08-28T13:00:08.162Z,1000.28
2022-08-28T13:05:08.090Z,1000.22
2022-08-28T13:10:08.033Z,1000.26
2022-08-28T13:15:07.972Z,1000.17
2022-08-28T13:20:07.897Z,1000.13
2022-08-28T13:25:07.826Z,1000.10
2022-08-28T13:30:07.770Z,1000.09
2022-08-28T13:35:07.697Z,1000.04
2022-08-28T13:40:15.998Z,1000.10
2022-08-28T13:45:08.580Z,999.91
2022-08-28T13:50:07.491Z,1000.02
2022-08-28T13:55:07.421Z,1000.02
2022-08-28T14:00:07.360Z,1000.01
2022-08-28T14:05:07.292Z,1000.02
2022-08-28T14:10:07.240Z,1000.12
2022-08-28T14:15:07.161Z,1000.14
2022-08-28T14:20:07.092Z,1000.09
2022-08-28T14:25:07.025Z,1000.03
2022-08-28T14:30:06.958Z,1000.09
2022-08-28T14:35:06.888Z,1000.03
2022-08-28T14:40:06.934Z,1000.05
2022-08-28T14:45:06.752Z,1000.03
2022-08-28T14:50:06.753Z,1000.08
2022-08-28T14:55:06.633Z,1000.03
2022-08-28T15:00:06.568Z,1000.05
2022-08-28T15:05:06.496Z,1000.04
2022-08-28T15:10:06.455Z,1000.02
2022-08-28T15:15:06.382Z,1000.02
2022-08-28T15:20:06.325Z,1000.03
2022-08-28T15:25:06.250Z,999.97
2022-08-28T15:30:06.192Z,999.97
2022-08-28T15:35:06.123Z,999.95
2022-08-28T15:40:06.125Z,999.96
2022-08-28T15:45:05.999Z,999.97
2022-08-28T15:50:05.939Z,999.92
2022-08-28T15:55:05.872Z,999.95
2022-08-28T16:00:10.139Z,999.95
2022-08-28T16:05:05.762Z,999.91
2022-08-28T16:10:05.702Z,999.92
2022-08-28T16:15:05.633Z,999.91
2022-08-28T16:20:05.568Z,999.88
2022-08-28T16:25:05.510Z,999.83
2022-08-28T16:30:05.497Z,999.86
2022-08-28T16:35:05.375Z,999.85
2022-08-28T16:40:05.415Z,999.87
2022-08-28T16:45:05.261Z,999.86
2022-08-28T16:50:05.210Z,999.84
2022-08-28T16:55:05.127Z,999.85
2022-08-28T17:00:05.085Z,999.94
2022-08-28T17:05:05.009Z,999.96
2022-08-28T17:10:04.969Z,999.93
2022-08-28T17:15:04.876Z,1000.03
2022-08-28T17:20:04.829Z,1000.08
2022-08-28T17:25:04.743Z,1000.05
2022-08-28T17:30:04.890Z,1000.10
2022-08-28T17:35:04.616Z,1000.20
2022-08-28T17:40:04.621Z,1000.25
2022-08-28T17:45:04.487Z,1000.24
2022-08-28T17:50:04.442Z,1000.28
2022-08-28T17:55:04.364Z,1000.34
2022-08-28T18:00:05.172Z,1000.36
2022-08-28T18:05:04.301Z,1000.38
2022-08-28T18:10:04.182Z,1000.48
2022-08-28T18:15:04.096Z,1000.54
2022-08-28T18:20:04.052Z,1000.59
2022-08-28T18:25:03.979Z,1000.65
2022-08-28T18:30:03.914Z,1000.80
2022-08-28T18:35:03.836Z,1000.78
2022-08-28T18:40:03.791Z,1000.90
2022-08-28T18:45:03.719Z,1000.91
2022-08-28T18:50:05.154Z,1001.00
2022-08-28T18:55:05.111Z,1001.02
2022-08-28T19:00:03.510Z,1001.06
2022-08-28T19:05:03.461Z,1001.12
2022-08-28T19:10:03.390Z,1001.15
2022-08-28T19:15:03.324Z,1001.18
2022-08-28T19:20:03.266Z,1001.25
2022-08-28T19:25:03.192Z,1001.27
2022-08-28T19:30:03.128Z,1001.39
2022-08-28T19:35:03.062Z,1001.39
2022-08-28T19:40:03.048Z,1001.54
2022-08-28T19:45:02.933Z,1001.59
2022-08-28T19:50:02.880Z,1001.66
2022-08-28T19:55:02.804Z,1001.67
2022-08-28T20:00:02.793Z,1001.76
2022-08-28T20:05:02.672Z,1001.80
2022-08-28T20:10:02.615Z,1001.79
2022-08-28T20:15:03.672Z,1001.84
2022-08-28T20:20:03.459Z,1001.87
2022-08-28T20:25:02.396Z,1001.84
2022-08-28T20:30:07.125Z,1001.83
2022-08-28T20:35:02.264Z,1001.91
2022-08-28T20:40:04.507Z,1001.97
2022-08-28T20:45:02.140Z,1002.00
2022-08-28T20:50:02.072Z,1001.95
2022-08-28T20:55:02.008Z,1002.04
2022-08-28T21:00:05.467Z,1002.10
2022-08-28T21:05:01.958Z,1002.14
2022-08-28T21:10:05.108Z,1002.16
2022-08-28T21:15:01.759Z,1002.25
2022-08-28T21:20:02.881Z,1002.24
2022-08-28T21:25:01.620Z,1002.33
2022-08-28T21:30:01.562Z,1002.34
2022-08-28T21:35:01.502Z,1002.38
2022-08-28T21:40:01.524Z,1002.30
2022-08-28T21:45:01.370Z,1002.36
2022-08-28T21:50:01.300Z,1002.39
2022-08-28T21:55:01.250Z,1002.48
2022-08-28T22:00:01.179Z,1002.54
2022-08-28T22:05:01.108Z,1002.53
2022-08-28T22:10:01.045Z,1002.54
2022-08-28T22:15:00.991Z,1002.55
2022-08-28T22:20:00.921Z,1002.57
2022-08-28T22:25:00.863Z,1002.63
2022-08-28T22:30:00.779Z,1002.67
2022-08-28T22:35:00.733Z,1002.72
2022-08-28T22:40:00.693Z,1002.74
2022-08-28T22:45:00.598Z,1002.71
2022-08-28T22:50:00.516Z,1002.79
2022-08-28T22:55:00.455Z,1002.74
2022-08-28T23:00:00.382Z,1002.73
2022-08-28T23:05:00.323Z,1002.69
2022-08-28T23:10:00.251Z,1002.68
2022-08-28T23:15:00.190Z,1002.72
2022-08-28T23:20:00.149Z,1002.76
2022-08-28T23:25:00.058Z,1002.77
2022-08-28T23:29:59.987Z,1002.81
2022-08-28T23:34:59.928Z,1002.82
2022-08-28T23:39:59.880Z,1002.85
2022-08-28T23:44:59.806Z,1002.95
2022-08-28T23:49:59.731Z,1002.93
2022-08-28T23:54:59.665Z,1002.93
2022-08-28T23:59:59.587Z,1002.88
